sensor_id;sensor_type;location;lat;lon;timestamp;P1;durP1;ratioP1;P2;durP2;ratioP2
12302;SDS011;6214;48.012;7.862;2023-05-01T00:01:50;5.53;;;2.40;;
12302;SDS011;6214;48.012;7.862;2023-05-01T00:04:17;5.05;;;2.90;;
12302;SDS011;6214;48.012;7.862;2023-05-01T00:06:47;5.30;;;2.60;;
12302;SDS011;6214;48.012;7.862;2023-05-01T00:09:14;5.00;;;2.70;;
12302;SDS011;6214;48.012;7.862;2023-05-01T00:11:41;5.67;;;2.90;;
12302;SDS011;6214;48.012;7.862;2023-05-01T00:14:08;6.05;;;2.70;;
12302;SDS011;6214;48.012;7.862;2023-05-01T00:16:35;5.10;;;2.70;;
12302;SDS011;6214;48.012;7.862;2023-05-01T00:19:03;5.20;;;2.80;;
12302;SDS011;6214;48.012;7.862;2023-05-01T00:21:30;5.45;;;3.00;;
12302;SDS011;6214;48.012;7.862;2023-05-01T00:23:57;5.80;;;2.70;;
12302;SDS011;6214;48.012;7.862;2023-05-01T00:26:24;5.20;;;2.80;;
12302;SDS011;6214;48.012;7.862;2023-05-01T00:28:56;6.00;;;2.70;;
12302;SDS011;6214;48.012;7.862;2023-05-01T00:31:23;5.43;;;2.80;;
12302;SDS011;6214;48.012;7.862;2023-05-01T00:33:51;5.03;;;2.50;;
12302;SDS011;6214;48.012;7.862;2023-05-01T00:36:18;5.20;;;2.70;;
12302;SDS011;6214;48.012;7.862;2023-05-01T00:38:45;5.70;;;2.70;;
12302;SDS011;6214;48.012;7.862;2023-05-01T00:41:13;5.03;;;2.60;;
12302;SDS011;6214;48.012;7.862;2023-05-01T00:43:40;5.43;;;3.00;;
12302;SDS011;6214;48.012;7.862;2023-05-01T00:46:07;4.80;;;2.50;;
12302;SDS011;6214;48.012;7.862;2023-05-01T00:48:35;5.28;;;2.50;;
12302;SDS011;6214;48.012;7.862;2023-05-01T00:51:03;5.80;;;2.90;;
12302;SDS011;6214;48.012;7.862;2023-05-01T00:53:33;6.20;;;2.60;;
12302;SDS011;6214;48.012;7.862;2023-05-01T00:56:00;5.60;;;2.60;;
12302;SDS011;6214;48.012;7.862;2023-05-01T00:58:28;5.40;;;2.80;;
12302;SDS011;6214;48.012;7.862;2023-05-01T01:00:55;5.30;;;2.60;;
12302;SDS011;6214;48.012;7.862;2023-05-01T01:03:22;4.90;;;2.53;;
12302;SDS011;6214;48.012;7.862;2023-05-01T01:05:50;4.90;;;2.70;;
12302;SDS011;6214;48.012;7.862;2023-05-01T01:08:48;5.00;;;2.60;;
12302;SDS011;6214;48.012;7.862;2023-05-01T01:14:34;4.90;;;2.40;;
12302;SDS011;6214;48.012;7.862;2023-05-01T01:17:10;5.30;;;2.80;;
12302;SDS011;6214;48.012;7.862;2023-05-01T01:19:55;5.30;;;2.92;;
12302;SDS011;6214;48.012;7.862;2023-05-01T01:22:49;5.43;;;2.90;;
12302;SDS011;6214;48.012;7.862;2023-05-01T01:25:28;5.30;;;2.75;;
12302;SDS011;6214;48.012;7.862;2023-05-01T01:30:53;4.97;;;2.90;;
12302;SDS011;6214;48.012;7.862;2023-05-01T01:36:16;4.95;;;2.63;;
12302;SDS011;6214;48.012;7.862;2023-05-01T01:38:51;5.60;;;2.80;;
12302;SDS011;6214;48.012;7.862;2023-05-01T01:41:34;5.55;;;2.80;;
12302;SDS011;6214;48.012;7.862;2023-05-01T01:44:07;6.20;;;2.83;;
12302;SDS011;6214;48.012;7.862;2023-05-01T01:46:38;5.60;;;2.70;;
12302;SDS011;6214;48.012;7.862;2023-05-01T01:49:13;5.10;;;2.63;;
12302;SDS011;6214;48.012;7.862;2023-05-01T01:51:46;5.10;;;2.85;;
12302;SDS011;6214;48.012;7.862;2023-05-01T01:54:17;5.45;;;2.80;;
12302;SDS011;6214;48.012;7.862;2023-05-01T01:56:47;5.10;;;2.80;;
12302;SDS011;6214;48.012;7.862;2023-05-01T01:59:16;4.90;;;2.60;;
12302;SDS011;6214;48.012;7.862;2023-05-01T02:01:45;5.30;;;2.78;;
12302;SDS011;6214;48.012;7.862;2023-05-01T02:04:14;4.90;;;2.75;;
12302;SDS011;6214;48.012;7.862;2023-05-01T02:06:43;6.80;;;2.90;;
12302;SDS011;6214;48.012;7.862;2023-05-01T02:09:12;5.72;;;2.83;;
12302;SDS011;6214;48.012;7.862;2023-05-01T02:11:44;5.70;;;2.80;;
12302;SDS011;6214;48.012;7.862;2023-05-01T02:14:13;6.18;;;2.90;;
12302;SDS011;6214;48.012;7.862;2023-05-01T02:16:41;5.50;;;2.70;;
12302;SDS011;6214;48.012;7.862;2023-05-01T02:19:10;5.10;;;2.70;;
12302;SDS011;6214;48.012;7.862;2023-05-01T02:21:39;5.65;;;2.70;;
12302;SDS011;6214;48.012;7.862;2023-05-01T02:24:08;4.80;;;2.40;;
12302;SDS011;6214;48.012;7.862;2023-05-01T02:26:41;5.40;;;2.72;;
12302;SDS011;6214;48.012;7.862;2023-05-01T02:29:10;5.40;;;2.80;;
12302;SDS011;6214;48.012;7.862;2023-05-01T02:31:37;5.00;;;2.80;;
12302;SDS011;6214;48.012;7.862;2023-05-01T02:34:05;5.75;;;2.70;;
12302;SDS011;6214;48.012;7.862;2023-05-01T02:36:32;5.90;;;2.90;;
12302;SDS011;6214;48.012;7.862;2023-05-01T02:38:59;5.22;;;2.90;;
12302;SDS011;6214;48.012;7.862;2023-05-01T02:41:27;5.03;;;2.70;;
12302;SDS011;6214;48.012;7.862;2023-05-01T02:43:57;5.40;;;3.00;;
12302;SDS011;6214;48.012;7.862;2023-05-01T02:46:29;5.53;;;3.00;;
12302;SDS011;6214;48.012;7.862;2023-05-01T02:49:00;5.10;;;2.70;;
12302;SDS011;6214;48.012;7.862;2023-05-01T02:51:29;5.28;;;2.70;;
12302;SDS011;6214;48.012;7.862;2023-05-01T02:54:00;5.30;;;2.80;;
12302;SDS011;6214;48.012;7.862;2023-05-01T02:56:28;4.97;;;2.70;;
12302;SDS011;6214;48.012;7.862;2023-05-01T02:58:56;5.55;;;3.40;;
12302;SDS011;6214;48.012;7.862;2023-05-01T03:01:23;5.40;;;3.20;;
12302;SDS011;6214;48.012;7.862;2023-05-01T03:03:51;5.00;;;2.90;;
12302;SDS011;6214;48.012;7.862;2023-05-01T03:06:18;5.03;;;3.00;;
12302;SDS011;6214;48.012;7.862;2023-05-01T03:08:45;5.70;;;3.33;;
12302;SDS011;6214;48.012;7.862;2023-05-01T03:11:13;5.32;;;3.10;;
12302;SDS011;6214;48.012;7.862;2023-05-01T03:13:40;5.05;;;2.80;;
12302;SDS011;6214;48.012;7.862;2023-05-01T03:16:08;5.77;;;3.27;;
12302;SDS011;6214;48.012;7.862;2023-05-01T03:18:35;6.07;;;3.47;;
12302;SDS011;6214;48.012;7.862;2023-05-01T03:21:02;5.53;;;3.27;;
12302;SDS011;6214;48.012;7.862;2023-05-01T03:23:29;5.97;;;3.22;;
12302;SDS011;6214;48.012;7.862;2023-05-01T03:25:56;5.80;;;3.10;;
12302;SDS011;6214;48.012;7.862;2023-05-01T03:28:24;5.60;;;3.10;;
12302;SDS011;6214;48.012;7.862;2023-05-01T03:30:51;6.43;;;3.60;;
12302;SDS011;6214;48.012;7.862;2023-05-01T03:33:19;7.90;;;3.95;;
12302;SDS011;6214;48.012;7.862;2023-05-01T03:35:46;6.32;;;3.42;;
12302;SDS011;6214;48.012;7.862;2023-05-01T03:38:13;6.93;;;3.30;;
12302;SDS011;6214;48.012;7.862;2023-05-01T03:40:40;6.25;;;3.60;;
12302;SDS011;6214;48.012;7.862;2023-05-01T03:43:07;7.40;;;3.40;;
12302;SDS011;6214;48.012;7.862;2023-05-01T03:45:34;5.15;;;3.33;;
12302;SDS011;6214;48.012;7.862;2023-05-01T03:48:01;5.85;;;3.10;;
12302;SDS011;6214;48.012;7.862;2023-05-01T03:50:29;5.60;;;3.60;;
12302;SDS011;6214;48.012;7.862;2023-05-01T03:52:56;7.50;;;3.50;;
12302;SDS011;6214;48.012;7.862;2023-05-01T03:55:23;5.30;;;3.05;;
12302;SDS011;6214;48.012;7.862;2023-05-01T03:57:50;5.60;;;3.30;;
12302;SDS011;6214;48.012;7.862;2023-05-01T04:00:18;5.43;;;3.17;;
12302;SDS011;6214;48.012;7.862;2023-05-01T04:02:45;6.25;;;3.40;;
12302;SDS011;6214;48.012;7.862;2023-05-01T04:05:12;7.20;;;3.10;;
12302;SDS011;6214;48.012;7.862;2023-05-01T04:07:40;5.70;;;3.13;;
12302;SDS011;6214;48.012;7.862;2023-05-01T04:10:07;6.30;;;3.42;;
12302;SDS011;6214;48.012;7.862;2023-05-01T04:12:35;7.30;;;3.40;;
12302;SDS011;6214;48.012;7.862;2023-05-01T04:15:02;5.67;;;3.37;;
12302;SDS011;6214;48.012;7.862;2023-05-01T04:17:30;6.50;;;3.20;;
12302;SDS011;6214;48.012;7.862;2023-05-01T04:19:57;5.40;;;3.30;;
12302;SDS011;6214;48.012;7.862;2023-05-01T04:22:26;5.90;;;3.72;;
12302;SDS011;6214;48.012;7.862;2023-05-01T04:24:53;9.98;;;3.80;;
12302;SDS011;6214;48.012;7.862;2023-05-01T04:27:20;5.20;;;3.17;;
12302;SDS011;6214;48.012;7.862;2023-05-01T04:29:47;5.80;;;3.00;;
12302;SDS011;6214;48.012;7.862;2023-05-01T04:32:14;5.82;;;3.40;;
12302;SDS011;6214;48.012;7.862;2023-05-01T04:34:42;5.55;;;3.35;;
12302;SDS011;6214;48.012;7.862;2023-05-01T04:37:10;5.65;;;3.17;;
12302;SDS011;6214;48.012;7.862;2023-05-01T04:39:37;5.10;;;3.10;;
12302;SDS011;6214;48.012;7.862;2023-05-01T04:42:04;7.10;;;3.40;;
12302;SDS011;6214;48.012;7.862;2023-05-01T04:44:31;5.50;;;3.33;;
12302;SDS011;6214;48.012;7.862;2023-05-01T04:47:02;5.40;;;3.10;;
12302;SDS011;6214;48.012;7.862;2023-05-01T04:49:30;5.10;;;3.10;;
12302;SDS011;6214;48.012;7.862;2023-05-01T04:51:57;5.10;;;3.20;;
12302;SDS011;6214;48.012;7.862;2023-05-01T04:54:24;5.50;;;3.10;;
12302;SDS011;6214;48.012;7.862;2023-05-01T04:56:53;6.15;;;3.20;;
12302;SDS011;6214;48.012;7.862;2023-05-01T04:59:20;6.18;;;3.60;;
12302;SDS011;6214;48.012;7.862;2023-05-01T05:01:47;5.80;;;2.92;;
12302;SDS011;6214;48.012;7.862;2023-05-01T05:04:14;6.15;;;3.30;;
12302;SDS011;6214;48.012;7.862;2023-05-01T05:06:41;5.40;;;3.10;;
12302;SDS011;6214;48.012;7.862;2023-05-01T05:09:08;5.15;;;3.00;;
12302;SDS011;6214;48.012;7.862;2023-05-01T05:11:39;5.10;;;3.00;;
12302;SDS011;6214;48.012;7.862;2023-05-01T05:14:06;5.50;;;3.47;;
12302;SDS011;6214;48.012;7.862;2023-05-01T05:16:33;5.85;;;3.00;;
12302;SDS011;6214;48.012;7.862;2023-05-01T05:19:00;5.50;;;3.15;;
12302;SDS011;6214;48.012;7.862;2023-05-01T05:21:28;5.70;;;3.35;;
12302;SDS011;6214;48.012;7.862;2023-05-01T05:23:55;5.90;;;3.67;;
12302;SDS011;6214;48.012;7.862;2023-05-01T05:26:22;5.90;;;3.40;;
12302;SDS011;6214;48.012;7.862;2023-05-01T05:28:50;6.13;;;3.80;;
12302;SDS011;6214;48.012;7.862;2023-05-01T05:31:17;7.00;;;3.20;;
12302;SDS011;6214;48.012;7.862;2023-05-01T05:33:44;5.57;;;3.10;;
12302;SDS011;6214;48.012;7.862;2023-05-01T05:36:11;6.07;;;3.33;;
12302;SDS011;6214;48.012;7.862;2023-05-01T05:38:38;6.00;;;3.38;;
12302;SDS011;6214;48.012;7.862;2023-05-01T05:41:05;5.80;;;3.53;;
12302;SDS011;6214;48.012;7.862;2023-05-01T05:43:32;5.30;;;3.20;;
12302;SDS011;6214;48.012;7.862;2023-05-01T05:45:59;6.90;;;3.30;;
12302;SDS011;6214;48.012;7.862;2023-05-01T05:48:27;5.47;;;3.20;;
12302;SDS011;6214;48.012;7.862;2023-05-01T05:50:54;5.60;;;3.20;;
12302;SDS011;6214;48.012;7.862;2023-05-01T05:53:22;5.40;;;3.50;;
12302;SDS011;6214;48.012;7.862;2023-05-01T05:55:51;5.80;;;3.20;;
12302;SDS011;6214;48.012;7.862;2023-05-01T05:58:18;5.40;;;3.22;;
12302;SDS011;6214;48.012;7.862;2023-05-01T06:00:46;5.90;;;3.22;;
12302;SDS011;6214;48.012;7.862;2023-05-01T06:03:14;6.40;;;3.60;;
12302;SDS011;6214;48.012;7.862;2023-05-01T06:05:42;6.05;;;3.70;;
12302;SDS011;6214;48.012;7.862;2023-05-01T06:08:10;5.97;;;3.78;;
12302;SDS011;6214;48.012;7.862;2023-05-01T06:10:41;6.10;;;3.60;;
12302;SDS011;6214;48.012;7.862;2023-05-01T06:13:09;5.65;;;3.42;;
12302;SDS011;6214;48.012;7.862;2023-05-01T06:15:39;5.40;;;3.40;;
12302;SDS011;6214;48.012;7.862;2023-05-01T06:18:07;6.43;;;3.90;;
12302;SDS011;6214;48.012;7.862;2023-05-01T06:20:34;5.93;;;3.30;;
12302;SDS011;6214;48.012;7.862;2023-05-01T06:23:02;5.32;;;3.38;;
12302;SDS011;6214;48.012;7.862;2023-05-01T06:25:29;5.67;;;3.37;;
12302;SDS011;6214;48.012;7.862;2023-05-01T06:27:56;5.60;;;3.30;;
12302;SDS011;6214;48.012;7.862;2023-05-01T06:30:23;7.05;;;3.60;;
12302;SDS011;6214;48.012;7.862;2023-05-01T06:32:50;6.20;;;3.35;;
12302;SDS011;6214;48.012;7.862;2023-05-01T06:35:17;5.60;;;3.60;;
12302;SDS011;6214;48.012;7.862;2023-05-01T06:37:44;5.80;;;3.70;;
12302;SDS011;6214;48.012;7.862;2023-05-01T06:40:11;5.95;;;3.40;;
12302;SDS011;6214;48.012;7.862;2023-05-01T06:42:39;6.30;;;3.20;;
12302;SDS011;6214;48.012;7.862;2023-05-01T06:45:06;5.83;;;3.30;;
12302;SDS011;6214;48.012;7.862;2023-05-01T06:47:34;5.90;;;3.50;;
12302;SDS011;6214;48.012;7.862;2023-05-01T06:50:01;6.40;;;3.20;;
12302;SDS011;6214;48.012;7.862;2023-05-01T06:52:31;6.60;;;3.60;;
12302;SDS011;6214;48.012;7.862;2023-05-01T06:54:58;5.67;;;3.20;;
12302;SDS011;6214;48.012;7.862;2023-05-01T06:57:25;6.00;;;3.80;;
12302;SDS011;6214;48.012;7.862;2023-05-01T06:59:52;6.40;;;3.60;;
12302;SDS011;6214;48.012;7.862;2023-05-01T07:02:20;5.68;;;3.50;;
12302;SDS011;6214;48.012;7.862;2023-05-01T07:04:47;5.93;;;3.83;;
12302;SDS011;6214;48.012;7.862;2023-05-01T07:07:14;6.50;;;3.30;;
12302;SDS011;6214;48.012;7.862;2023-05-01T07:09:41;5.80;;;3.50;;
12302;SDS011;6214;48.012;7.862;2023-05-01T07:12:08;5.90;;;3.50;;
12302;SDS011;6214;48.012;7.862;2023-05-01T07:14:35;5.50;;;3.08;;
12302;SDS011;6214;48.012;7.862;2023-05-01T07:17:02;5.60;;;3.40;;
12302;SDS011;6214;48.012;7.862;2023-05-01T07:19:29;6.70;;;3.97;;
12302;SDS011;6214;48.012;7.862;2023-05-01T07:21:56;6.40;;;4.00;;
12302;SDS011;6214;48.012;7.862;2023-05-01T07:24:23;7.00;;;3.90;;
12302;SDS011;6214;48.012;7.862;2023-05-01T07:26:51;6.90;;;3.65;;
12302;SDS011;6214;48.012;7.862;2023-05-01T07:29:18;5.90;;;3.30;;
12302;SDS011;6214;48.012;7.862;2023-05-01T07:31:45;5.67;;;3.00;;
12302;SDS011;6214;48.012;7.862;2023-05-01T07:34:13;5.40;;;3.20;;
12302;SDS011;6214;48.012;7.862;2023-05-01T07:36:42;5.80;;;3.50;;
12302;SDS011;6214;48.012;7.862;2023-05-01T07:39:09;5.05;;;3.20;;
12302;SDS011;6214;48.012;7.862;2023-05-01T07:41:37;6.28;;;3.50;;
12302;SDS011;6214;48.012;7.862;2023-05-01T07:44:04;5.80;;;3.50;;
12302;SDS011;6214;48.012;7.862;2023-05-01T07:46:31;6.00;;;3.40;;
12302;SDS011;6214;48.012;7.862;2023-05-01T07:48:58;5.93;;;3.30;;
12302;SDS011;6214;48.012;7.862;2023-05-01T07:51:26;5.97;;;3.85;;
12302;SDS011;6214;48.012;7.862;2023-05-01T07:53:53;5.37;;;3.30;;
12302;SDS011;6214;48.012;7.862;2023-05-01T07:56:20;7.10;;;3.42;;
12302;SDS011;6214;48.012;7.862;2023-05-01T07:58:47;5.25;;;3.33;;
12302;SDS011;6214;48.012;7.862;2023-05-01T08:01:14;5.70;;;3.42;;
12302;SDS011;6214;48.012;7.862;2023-05-01T08:03:41;5.45;;;3.10;;
12302;SDS011;6214;48.012;7.862;2023-05-01T08:06:09;5.20;;;3.03;;
12302;SDS011;6214;48.012;7.862;2023-05-01T08:08:36;5.93;;;3.20;;
12302;SDS011;6214;48.012;7.862;2023-05-01T08:11:03;5.47;;;3.42;;
12302;SDS011;6214;48.012;7.862;2023-05-01T08:13:30;6.10;;;3.58;;
12302;SDS011;6214;48.012;7.862;2023-05-01T08:16:01;5.35;;;3.15;;
12302;SDS011;6214;48.012;7.862;2023-05-01T08:18:29;5.70;;;3.20;;
12302;SDS011;6214;48.012;7.862;2023-05-01T08:20:56;5.38;;;3.20;;
12302;SDS011;6214;48.012;7.862;2023-05-01T08:23:23;5.70;;;3.58;;
12302;SDS011;6214;48.012;7.862;2023-05-01T08:25:51;5.90;;;3.60;;
12302;SDS011;6214;48.012;7.862;2023-05-01T08:28:18;5.38;;;2.90;;
12302;SDS011;6214;48.012;7.862;2023-05-01T08:30:48;5.70;;;3.30;;
12302;SDS011;6214;48.012;7.862;2023-05-01T08:33:16;5.75;;;3.10;;
12302;SDS011;6214;48.012;7.862;2023-05-01T08:35:43;5.05;;;3.00;;
12302;SDS011;6214;48.012;7.862;2023-05-01T08:38:10;5.43;;;3.10;;
12302;SDS011;6214;48.012;7.862;2023-05-01T08:40:37;5.50;;;3.40;;
12302;SDS011;6214;48.012;7.862;2023-05-01T08:43:06;5.15;;;3.10;;
12302;SDS011;6214;48.012;7.862;2023-05-01T08:45:34;5.38;;;3.20;;
12302;SDS011;6214;48.012;7.862;2023-05-01T08:48:06;5.55;;;3.28;;
12302;SDS011;6214;48.012;7.862;2023-05-01T08:50:35;4.90;;;3.00;;
12302;SDS011;6214;48.012;7.862;2023-05-01T08:53:06;5.22;;;3.00;;
12302;SDS011;6214;48.012;7.862;2023-05-01T08:55:34;5.03;;;2.83;;
12302;SDS011;6214;48.012;7.862;2023-05-01T08:58:02;5.60;;;3.00;;
12302;SDS011;6214;48.012;7.862;2023-05-01T09:00:33;5.18;;;2.80;;
12302;SDS011;6214;48.012;7.862;2023-05-01T09:03:01;5.35;;;3.00;;
12302;SDS011;6214;48.012;7.862;2023-05-01T09:05:31;5.68;;;3.05;;
12302;SDS011;6214;48.012;7.862;2023-05-01T09:07:59;5.10;;;2.90;;
12302;SDS011;6214;48.012;7.862;2023-05-01T09:10:26;4.80;;;2.67;;
12302;SDS011;6214;48.012;7.862;2023-05-01T09:13:01;8.27;;;7.10;;
12302;SDS011;6214;48.012;7.862;2023-05-01T09:15:32;4.87;;;2.83;;
12302;SDS011;6214;48.012;7.862;2023-05-01T09:17:59;4.67;;;2.60;;
12302;SDS011;6214;48.012;7.862;2023-05-01T09:20:30;5.20;;;2.92;;
12302;SDS011;6214;48.012;7.862;2023-05-01T09:22:58;4.40;;;2.17;;
12302;SDS011;6214;48.012;7.862;2023-05-01T09:25:25;4.50;;;2.17;;
12302;SDS011;6214;48.012;7.862;2023-05-01T09:27:52;5.18;;;2.58;;
12302;SDS011;6214;48.012;7.862;2023-05-01T09:30:32;4.50;;;2.22;;
12302;SDS011;6214;48.012;7.862;2023-05-01T09:33:07;4.70;;;2.40;;
12302;SDS011;6214;48.012;7.862;2023-05-01T09:35:52;5.13;;;2.30;;
12302;SDS011;6214;48.012;7.862;2023-05-01T09:38:20;4.80;;;2.28;;
12302;SDS011;6214;48.012;7.862;2023-05-01T09:40:53;6.30;;;2.42;;
12302;SDS011;6214;48.012;7.862;2023-05-01T09:43:23;4.20;;;1.80;;
12302;SDS011;6214;48.012;7.862;2023-05-01T09:46:01;4.50;;;2.20;;
12302;SDS011;6214;48.012;7.862;2023-05-01T09:48:31;4.70;;;2.10;;
12302;SDS011;6214;48.012;7.862;2023-05-01T09:51:05;4.45;;;1.90;;
12302;SDS011;6214;48.012;7.862;2023-05-01T09:53:49;4.20;;;1.80;;
12302;SDS011;6214;48.012;7.862;2023-05-01T09:56:18;4.65;;;2.30;;
12302;SDS011;6214;48.012;7.862;2023-05-01T09:58:48;4.70;;;1.90;;
12302;SDS011;6214;48.012;7.862;2023-05-01T10:01:16;4.60;;;2.30;;
12302;SDS011;6214;48.012;7.862;2023-05-01T10:03:44;4.90;;;1.90;;
12302;SDS011;6214;48.012;7.862;2023-05-01T10:06:25;4.20;;;1.70;;
12302;SDS011;6214;48.012;7.862;2023-05-01T10:08:54;4.40;;;1.90;;
12302;SDS011;6214;48.012;7.862;2023-05-01T10:11:21;4.45;;;1.70;;
12302;SDS011;6214;48.012;7.862;2023-05-01T10:16:49;4.20;;;1.55;;
12302;SDS011;6214;48.012;7.862;2023-05-01T10:19:20;4.05;;;1.60;;
12302;SDS011;6214;48.012;7.862;2023-05-01T10:21:47;4.00;;;1.50;;
12302;SDS011;6214;48.012;7.862;2023-05-01T10:24:15;4.20;;;1.50;;
12302;SDS011;6214;48.012;7.862;2023-05-01T10:26:43;4.10;;;1.50;;
12302;SDS011;6214;48.012;7.862;2023-05-01T10:29:10;3.80;;;1.30;;
12302;SDS011;6214;48.012;7.862;2023-05-01T10:31:38;4.00;;;1.50;;
12302;SDS011;6214;48.012;7.862;2023-05-01T10:34:08;4.30;;;1.50;;
12302;SDS011;6214;48.012;7.862;2023-05-01T10:44:25;4.32;;;1.90;;
12302;SDS011;6214;48.012;7.862;2023-05-01T10:46:52;4.07;;;1.42;;
12302;SDS011;6214;48.012;7.862;2023-05-01T10:49:20;5.00;;;1.90;;
12302;SDS011;6214;48.012;7.862;2023-05-01T10:54:24;4.28;;;1.70;;
12302;SDS011;6214;48.012;7.862;2023-05-01T10:56:53;4.00;;;1.70;;
12302;SDS011;6214;48.012;7.862;2023-05-01T10:59:21;5.47;;;2.10;;
12302;SDS011;6214;48.012;7.862;2023-05-01T11:01:49;4.53;;;1.80;;
12302;SDS011;6214;48.012;7.862;2023-05-01T11:09:37;4.18;;;1.60;;
12302;SDS011;6214;48.012;7.862;2023-05-01T11:12:08;4.30;;;1.70;;
12302;SDS011;6214;48.012;7.862;2023-05-01T11:20:10;4.72;;;1.50;;
12302;SDS011;6214;48.012;7.862;2023-05-01T11:22:50;4.45;;;1.40;;
12302;SDS011;6214;48.012;7.862;2023-05-01T11:27:50;4.00;;;1.40;;
12302;SDS011;6214;48.012;7.862;2023-05-01T11:30:19;3.85;;;1.30;;
12302;SDS011;6214;48.012;7.862;2023-05-01T11:32:47;4.13;;;1.33;;
12302;SDS011;6214;48.012;7.862;2023-05-01T11:35:19;4.60;;;1.65;;
12302;SDS011;6214;48.012;7.862;2023-05-01T11:37:47;4.00;;;1.50;;
12302;SDS011;6214;48.012;7.862;2023-05-01T11:40:20;4.90;;;1.60;;
12302;SDS011;6214;48.012;7.862;2023-05-01T11:45:35;5.00;;;1.90;;
12302;SDS011;6214;48.012;7.862;2023-05-01T11:48:03;4.50;;;1.90;;
12302;SDS011;6214;48.012;7.862;2023-05-01T11:50:39;4.40;;;1.88;;
12302;SDS011;6214;48.012;7.862;2023-05-01T11:53:10;4.50;;;1.65;;
12302;SDS011;6214;48.012;7.862;2023-05-01T11:55:42;4.22;;;1.80;;
12302;SDS011;6214;48.012;7.862;2023-05-01T11:58:10;4.57;;;1.60;;
12302;SDS011;6214;48.012;7.862;2023-05-01T12:00:41;4.30;;;1.70;;
12302;SDS011;6214;48.012;7.862;2023-05-01T12:03:12;4.40;;;1.85;;
12302;SDS011;6214;48.012;7.862;2023-05-01T12:05:43;4.13;;;1.70;;
12302;SDS011;6214;48.012;7.862;2023-05-01T12:08:14;4.20;;;1.60;;
12302;SDS011;6214;48.012;7.862;2023-05-01T12:10:48;4.30;;;1.60;;
12302;SDS011;6214;48.012;7.862;2023-05-01T12:13:21;4.28;;;1.70;;
12302;SDS011;6214;48.012;7.862;2023-05-01T12:15:50;4.32;;;1.65;;
12302;SDS011;6214;48.012;7.862;2023-05-01T12:18:19;4.32;;;1.50;;
12302;SDS011;6214;48.012;7.862;2023-05-01T12:20:50;4.13;;;1.60;;
12302;SDS011;6214;48.012;7.862;2023-05-01T12:23:19;4.10;;;1.60;;
12302;SDS011;6214;48.012;7.862;2023-05-01T12:26:14;4.20;;;1.80;;
12302;SDS011;6214;48.012;7.862;2023-05-01T12:29:04;4.10;;;1.63;;
12302;SDS011;6214;48.012;7.862;2023-05-01T12:31:33;4.20;;;1.67;;
12302;SDS011;6214;48.012;7.862;2023-05-01T12:34:02;4.50;;;1.90;;
12302;SDS011;6214;48.012;7.862;2023-05-01T12:36:35;5.18;;;1.95;;
12302;SDS011;6214;48.012;7.862;2023-05-01T12:39:03;4.53;;;1.83;;
12302;SDS011;6214;48.012;7.862;2023-05-01T12:41:37;4.45;;;1.90;;
12302;SDS011;6214;48.012;7.862;2023-05-01T12:49:27;4.30;;;2.10;;
12302;SDS011;6214;48.012;7.862;2023-05-01T12:51:56;4.70;;;2.10;;
12302;SDS011;6214;48.012;7.862;2023-05-01T12:59:37;4.85;;;2.00;;
12302;SDS011;6214;48.012;7.862;2023-05-01T13:02:06;5.00;;;1.90;;
12302;SDS011;6214;48.012;7.862;2023-05-01T13:04:37;4.75;;;2.20;;
12302;SDS011;6214;48.012;7.862;2023-05-01T13:07:14;4.55;;;2.00;;
12302;SDS011;6214;48.012;7.862;2023-05-01T13:09:55;4.20;;;2.00;;
12302;SDS011;6214;48.012;7.862;2023-05-01T13:12:26;4.40;;;1.92;;
12302;SDS011;6214;48.012;7.862;2023-05-01T13:14:54;4.53;;;2.00;;
12302;SDS011;6214;48.012;7.862;2023-05-01T13:17:22;4.60;;;1.90;;
12302;SDS011;6214;48.012;7.862;2023-05-01T13:19:52;4.57;;;2.15;;
12302;SDS011;6214;48.012;7.862;2023-05-01T13:22:33;4.50;;;1.95;;
12302;SDS011;6214;48.012;7.862;2023-05-01T13:25:03;4.82;;;2.10;;
12302;SDS011;6214;48.012;7.862;2023-05-01T13:27:39;5.10;;;2.10;;
12302;SDS011;6214;48.012;7.862;2023-05-01T13:30:08;4.47;;;2.10;;
12302;SDS011;6214;48.012;7.862;2023-05-01T13:32:38;5.50;;;2.20;;
12302;SDS011;6214;48.012;7.862;2023-05-01T13:35:07;4.70;;;1.80;;
12302;SDS011;6214;48.012;7.862;2023-05-01T13:37:34;4.90;;;2.10;;
12302;SDS011;6214;48.012;7.862;2023-05-01T13:40:01;4.82;;;2.40;;
12302;SDS011;6214;48.012;7.862;2023-05-01T13:42:30;5.10;;;2.30;;
12302;SDS011;6214;48.012;7.862;2023-05-01T13:44:57;4.63;;;1.80;;
12302;SDS011;6214;48.012;7.862;2023-05-01T13:47:25;4.40;;;1.95;;
12302;SDS011;6214;48.012;7.862;2023-05-01T13:49:53;4.88;;;2.00;;
12302;SDS011;6214;48.012;7.862;2023-05-01T13:52:21;4.30;;;1.70;;
12302;SDS011;6214;48.012;7.862;2023-05-01T13:54:49;4.50;;;2.00;;
12302;SDS011;6214;48.012;7.862;2023-05-01T13:57:21;4.90;;;2.13;;
12302;SDS011;6214;48.012;7.862;2023-05-01T13:59:48;4.60;;;2.30;;
12302;SDS011;6214;48.012;7.862;2023-05-01T14:02:17;4.70;;;2.00;;
12302;SDS011;6214;48.012;7.862;2023-05-01T14:04:52;5.27;;;2.40;;
12302;SDS011;6214;48.012;7.862;2023-05-01T14:07:21;4.43;;;2.15;;
12302;SDS011;6214;48.012;7.862;2023-05-01T14:09:53;4.68;;;2.10;;
12302;SDS011;6214;48.012;7.862;2023-05-01T14:12:23;5.35;;;2.40;;
12302;SDS011;6214;48.012;7.862;2023-05-01T14:14:55;5.00;;;2.30;;
12302;SDS011;6214;48.012;7.862;2023-05-01T14:17:31;5.00;;;2.40;;
12302;SDS011;6214;48.012;7.862;2023-05-01T14:20:00;4.78;;;2.10;;
12302;SDS011;6214;48.012;7.862;2023-05-01T14:22:28;5.43;;;2.35;;
12302;SDS011;6214;48.012;7.862;2023-05-01T14:24:59;4.53;;;2.25;;
12302;SDS011;6214;48.012;7.862;2023-05-01T14:27:31;4.50;;;2.10;;
12302;SDS011;6214;48.012;7.862;2023-05-01T14:29:58;5.40;;;2.00;;
12302;SDS011;6214;48.012;7.862;2023-05-01T14:32:26;4.37;;;2.00;;
12302;SDS011;6214;48.012;7.862;2023-05-01T14:34:55;4.60;;;2.28;;
12302;SDS011;6214;48.012;7.862;2023-05-01T14:37:22;4.30;;;1.98;;
12302;SDS011;6214;48.012;7.862;2023-05-01T14:39:50;5.33;;;2.20;;
12302;SDS011;6214;48.012;7.862;2023-05-01T14:42:17;5.18;;;2.38;;
12302;SDS011;6214;48.012;7.862;2023-05-01T14:44:45;4.65;;;2.10;;
12302;SDS011;6214;48.012;7.862;2023-05-01T14:47:12;4.60;;;2.20;;
12302;SDS011;6214;48.012;7.862;2023-05-01T14:49:44;5.30;;;2.40;;
12302;SDS011;6214;48.012;7.862;2023-05-01T14:52:19;6.35;;;2.20;;
12302;SDS011;6214;48.012;7.862;2023-05-01T14:54:47;4.53;;;1.85;;
12302;SDS011;6214;48.012;7.862;2023-05-01T14:57:14;4.95;;;2.00;;
12302;SDS011;6214;48.012;7.862;2023-05-01T14:59:41;4.70;;;2.30;;
12302;SDS011;6214;48.012;7.862;2023-05-01T15:02:08;4.57;;;2.17;;
12302;SDS011;6214;48.012;7.862;2023-05-01T15:04:35;4.90;;;2.20;;
12302;SDS011;6214;48.012;7.862;2023-05-01T15:07:02;4.50;;;2.00;;
12302;SDS011;6214;48.012;7.862;2023-05-01T15:09:30;4.50;;;1.92;;
12302;SDS011;6214;48.012;7.862;2023-05-01T15:11:57;4.40;;;1.98;;
12302;SDS011;6214;48.012;7.862;2023-05-01T15:14:24;5.65;;;2.30;;
12302;SDS011;6214;48.012;7.862;2023-05-01T15:16:52;4.72;;;2.13;;
12302;SDS011;6214;48.012;7.862;2023-05-01T15:19:19;4.60;;;2.30;;
12302;SDS011;6214;48.012;7.862;2023-05-01T15:21:48;4.90;;;2.10;;
12302;SDS011;6214;48.012;7.862;2023-05-01T15:24:15;4.30;;;1.83;;
12302;SDS011;6214;48.012;7.862;2023-05-01T15:26:44;5.35;;;2.25;;
12302;SDS011;6214;48.012;7.862;2023-05-01T15:29:11;6.70;;;2.90;;
12302;SDS011;6214;48.012;7.862;2023-05-01T15:31:39;4.95;;;2.40;;
12302;SDS011;6214;48.012;7.862;2023-05-01T15:34:06;4.30;;;1.90;;
12302;SDS011;6214;48.012;7.862;2023-05-01T15:36:35;5.53;;;2.42;;
12302;SDS011;6214;48.012;7.862;2023-05-01T15:39:02;5.13;;;2.40;;
12302;SDS011;6214;48.012;7.862;2023-05-01T15:41:31;5.53;;;2.40;;
12302;SDS011;6214;48.012;7.862;2023-05-01T15:43:58;5.00;;;2.50;;
12302;SDS011;6214;48.012;7.862;2023-05-01T15:46:25;4.75;;;2.33;;
12302;SDS011;6214;48.012;7.862;2023-05-01T15:48:53;5.05;;;2.60;;
12302;SDS011;6214;48.012;7.862;2023-05-01T15:51:20;5.43;;;2.70;;
12302;SDS011;6214;48.012;7.862;2023-05-01T15:53:47;5.63;;;2.33;;
12302;SDS011;6214;48.012;7.862;2023-05-01T15:56:14;5.00;;;1.90;;
12302;SDS011;6214;48.012;7.862;2023-05-01T15:58:41;4.50;;;2.00;;
12302;SDS011;6214;48.012;7.862;2023-05-01T16:01:10;4.50;;;2.00;;